Terminal Aerodrome Forecast
Issued by NWS

Home | Current Version | Previous Version | Text Only | Print | Product List | Glossary On
Versions: 1 2 3 4 5 6 7 8 9 10 11 12 13 14 15 16 17 18
976
FTUS43 KIWX 262105 AAB
TAFSBN
TAF AMD
KSBN 262105Z 2621/2718 21003KT 5SM -RA SCT010 BKN015
      TEMPO 2621/2623 2SM RA BKN010
     FM262300 22005KT P6SM VCSH SCT015 BKN025
     FM270300 23006KT P6SM OVC008
     FM270900 24005KT 1SM BR OVC003
     FM271500 25004KT P6SM OVC003=

USA.gov is the U.S. government's official web portal to all federal, state and local government web resources and services.